X  CloseMetar Aviation Weather Data     KSDL Scottsdale

Temperature

88°F Temperature

50°F Dewpoint

27% Humidity



Wind

 3 MPH

 5 KM/H

 1 M/S

 3 KTS



30°
North North
East
Current Conditions

Clear Clear
Pressure 1009.52 (hPa) - 29.81 (in)
Visibility 10 (mi) - 16.1 (km)
Airport
Airport-code KSDL

Location Scottsdale 15 (mi)

Metar:
KSDL 190453Z AUTO 03003KT 10SM CLR 31/10 A2981 RMK AO2 SLP065 T03060100

Time: 09-18-2019 21:53